Time;durP1;ratioP1;P1;durP2;ratioP2;P2;SDS_P1;SDS_P2;PMS_P1;PMS_P2;Temp;Humidity;BMP_temperature;BMP_pressure;BME280_temperature;BME280_humidity;BME280_pressure;Samples;Min_cycle;Max_cycle;Signal;HPM_P1;HPM_P2
2021/11/01 00:01:54;;;;;;;20.57;14.68;;;;;;;9.52;73.91;99184.91;2919392;80;21039;-72
2021/11/01 00:05:56;;;;;;;27.45;16.30;;;;;;;9.60;74.92;99180.20;2933653;80;21015;-72
2021/11/01 00:09:58;;;;;;;22.10;17.30;;;;;;;9.67;74.33;99181.30;2945444;80;21058;-71
2021/11/01 00:14:00;;;;;;;23.05;16.32;;;;;;;9.73;74.25;99175.39;2954780;80;20956;-72
2021/11/01 00:18:02;;;;;;;32.05;18.80;;;;;;;9.68;73.69;99177.16;2954272;80;20995;-72
2021/11/01 00:22:04;;;;;;;20.10;15.63;;;;;;;9.52;73.97;99180.45;2932179;80;21379;-72
2021/11/01 00:26:05;;;;;;;18.30;13.50;;;;;;;9.52;74.35;99167.66;2937768;80;21094;-72
2021/11/01 00:30:10;;;;;;;25.72;18.32;;;;;;;9.40;75.02;99169.66;2954541;80;20999;-71
2021/11/01 00:34:14;;;;;;;19.07;15.93;;;;;;;9.36;74.77;99166.48;2942770;80;21289;-71
2021/11/01 00:38:17;;;;;;;24.52;15.98;;;;;;;9.41;76.16;99162.89;2929006;80;21035;-72
2021/11/01 00:42:22;;;;;;;21.17;15.58;;;;;;;9.54;76.28;99164.39;2914867;80;21055;-72
2021/11/01 00:46:24;;;;;;;25.92;15.63;;;;;;;9.64;75.19;99158.52;2920555;81;21040;-72
2021/11/01 00:50:25;;;;;;;21.68;15.10;;;;;;;9.54;73.21;99155.09;2928445;81;21043;-72
2021/11/01 00:54:29;;;;;;;21.37;15.35;;;;;;;9.47;74.36;99170.77;2928806;81;21085;-72
2021/11/01 00:58:33;;;;;;;20.02;14.73;;;;;;;9.36;73.93;99174.92;2928643;81;21065;-72
2021/11/01 01:02:35;;;;;;;18.90;13.53;;;;;;;9.16;74.69;99174.16;2944896;80;20986;-72
2021/11/01 01:06:36;;;;;;;22.13;15.85;;;;;;;9.01;77.45;99156.05;2947222;80;21006;-71
2021/11/01 01:10:38;;;;;;;22.62;14.13;;;;;;;9.00;81.41;99148.56;2949644;80;21033;-72
2021/11/01 01:14:44;;;;;;;20.95;14.58;;;;;;;9.20;79.59;99160.44;2920617;80;20958;-72
2021/11/01 01:18:43;;;;;;;19.07;15.00;;;;;;;9.33;77.22;99158.78;2927544;81;21060;-72
2021/11/01 01:22:48;;;;;;;22.55;14.03;;;;;;;9.34;76.60;99167.12;2928508;81;21024;-71
2021/11/01 01:26:49;;;;;;;22.20;16.00;;;;;;;9.35;75.62;99161.31;2928687;81;20989;-72
2021/11/01 01:30:52;;;;;;;20.97;15.23;;;;;;;9.22;74.51;99145.21;2928777;81;21048;-72
2021/11/01 01:34:55;;;;;;;18.73;15.43;;;;;;;9.10;75.72;99122.00;2928798;81;20993;-72
2021/11/01 01:38:57;;;;;;;21.20;14.75;;;;;;;9.09;77.39;99123.49;2952118;80;21240;-72
2021/11/01 01:42:59;;;;;;;20.23;15.28;;;;;;;9.21;80.49;99099.76;2962520;80;20970;-72
2021/11/01 01:47:01;;;;;;;20.95;12.95;;;;;;;9.54;79.29;99099.34;2972303;80;20954;-73
2021/11/01 01:51:05;;;;;;;20.97;15.32;;;;;;;9.75;79.36;99099.58;2972013;80;21009;-72
2021/11/01 01:55:10;;;;;;;21.85;14.83;;;;;;;9.93;78.55;99109.72;2971812;80;21026;-72
2021/11/01 01:59:17;;;;;;;21.75;14.93;;;;;;;10.04;77.75;99102.02;2874801;80;21044;-72
2021/11/01 02:03:20;;;;;;;23.07;13.38;;;;;;;10.10;77.40;99081.48;2865162;83;21193;-73
2021/11/01 02:07:32;;;;;;;15.75;13.60;;;;;;;10.02;76.60;99061.46;2865060;83;21046;-71
2021/11/01 02:12:02;;;;;;;21.87;13.48;;;;;;;9.75;79.07;99048.61;2863989;83;21006;-72
2021/11/01 02:16:06;;;;;;;17.17;12.88;;;;;;;9.77;78.02;99061.23;2864675;82;21038;-72
2021/11/01 02:20:12;;;;;;;17.45;13.62;;;;;;;9.80;78.57;99046.33;2811067;84;21034;-71
2021/11/01 02:24:20;;;;;;;18.80;13.68;;;;;;;9.84;80.79;99026.95;2811340;84;21007;-71
2021/11/01 02:28:29;;;;;;;19.45;13.88;;;;;;;10.17;79.81;99027.23;2810955;84;21069;-72
2021/11/01 02:32:32;;;;;;;27.62;13.58;;;;;;;10.43;78.67;99037.92;2811272;84;21003;-72
2021/11/01 02:36:34;;;;;;;20.10;14.05;;;;;;;10.54;77.68;99022.69;2811432;84;21003;-72
2021/11/01 02:40:36;;;;;;;21.70;13.55;;;;;;;10.62;77.16;99025.41;2811074;83;21064;-72
2021/11/01 02:44:41;;;;;;;20.85;13.43;;;;;;;10.51;78.23;99021.68;2818578;83;21037;-72
2021/11/01 02:48:48;;;;;;;25.45;14.25;;;;;;;10.48;77.84;99016.68;2798300;85;21066;-72
2021/11/01 02:52:50;;;;;;;18.62;12.58;;;;;;;10.45;78.83;98997.06;2805225;83;21049;-72
2021/11/01 02:56:51;;;;;;;15.72;13.15;;;;;;;10.45;79.57;98982.44;2845727;83;20996;-72
2021/11/01 03:00:54;;;;;;;16.60;12.07;;;;;;;10.66;79.00;98994.85;2921728;80;21004;-72
2021/11/01 03:04:55;;;;;;;16.42;12.73;;;;;;;10.76;78.63;99013.83;2954861;80;20965;-72
2021/11/01 03:08:58;;;;;;;17.15;14.38;;;;;;;10.88;78.12;99012.58;2954799;80;21011;-73
2021/11/01 03:13:01;;;;;;;17.48;12.07;;;;;;;10.88;77.66;99003.27;2954890;79;21019;-72
2021/11/01 03:17:04;;;;;;;17.95;12.50;;;;;;;10.99;77.22;98994.98;2954977;80;20948;-72
2021/11/01 03:21:08;;;;;;;18.55;13.80;;;;;;;11.05;77.07;98979.39;2954813;80;21034;-72
2021/11/01 03:25:18;;;;;;;18.20;12.53;;;;;;;11.18;76.65;98985.06;2955512;80;21043;-72
2021/11/01 03:29:22;;;;;;;18.25;12.53;;;;;;;11.18;76.43;98993.56;2953688;80;20984;-72
2021/11/01 03:33:33;;;;;;;19.77;14.83;;;;;;;11.34;75.87;99008.74;2954743;80;20980;-72
2021/11/01 03:37:35;;;;;;;22.80;14.40;;;;;;;11.43;75.25;99019.77;2901653;80;21053;-71
2021/11/01 03:41:37;;;;;;;15.38;12.65;;;;;;;11.32;74.82;99012.06;2878193;82;21074;-72
2021/11/01 03:45:39;;;;;;;19.07;13.83;;;;;;;11.17;74.93;99014.52;2897762;80;20971;-72
2021/11/01 03:49:51;;;;;;;18.60;13.40;;;;;;;10.95;75.51;99007.45;2871563;83;21015;-72
2021/11/01 03:53:46;;;;;;;22.40;12.20;;;;;;;10.82;76.33;98998.08;2870558;83;20959;-72
2021/11/01 03:57:49;;;;;;;19.95;13.53;;;;;;;10.59;77.06;99000.45;2871634;83;21077;-73
2021/11/01 04:01:50;;;;;;;19.65;13.90;;;;;;;10.53;77.80;98989.12;2871281;82;21038;-72
2021/11/01 04:06:03;;;;;;;20.92;13.88;;;;;;;10.67;77.76;98983.22;2836326;81;21456;-72
2021/11/01 04:10:01;;;;;;;18.80;14.23;;;;;;;10.81;77.34;98982.30;2822181;84;21014;-71
2021/11/01 04:14:09;;;;;;;20.48;14.95;;;;;;;10.84;76.91;98976.66;2848254;81;21026;-72
2021/11/01 04:18:07;;;;;;;20.55;13.93;;;;;;;10.81;77.19;98968.48;2822537;84;21070;-72
2021/11/01 04:22:08;;;;;;;20.23;14.90;;;;;;;10.84;77.10;98956.70;2823440;84;21101;-72
2021/11/01 04:26:14;;;;;;;18.30;13.83;;;;;;;10.84;77.04;98962.02;2823144;84;21046;-72
2021/11/01 04:30:15;;;;;;;16.42;13.83;;;;;;;10.77;77.30;98953.00;2822938;84;21018;-72
2021/11/01 04:34:29;;;;;;;19.65;15.80;;;;;;;10.76;77.38;98957.50;2822686;84;21046;-72
2021/11/01 04:38:41;;;;;;;21.60;15.13;;;;;;;10.85;77.37;98958.37;2821007;84;21093;-73
2021/11/01 04:55:12;;;;;;;25.70;15.68;;;;;;;10.94;76.99;98945.42;2810661;83;21042;-72
2021/11/01 04:59:15;;;;;;;22.48;16.30;;;;;;;10.84;77.13;98925.59;2810758;84;21058;-71
2021/11/01 05:07:25;;;;;;;19.45;15.65;;;;;;;10.82;77.41;98928.10;2811207;84;21027;-72
2021/11/01 05:11:38;;;;;;;24.43;17.85;;;;;;;10.84;76.90;98938.08;2854134;81;21026;-73
2021/11/01 05:15:46;;;;;;;23.25;16.27;;;;;;;10.78;77.27;98946.20;2863698;81;21028;-72
2021/11/01 05:20:10;;;;;;;18.60;15.20;;;;;;;10.84;77.26;98949.54;2902481;82;21054;-72
2021/11/01 05:24:01;;;;;;;20.48;15.48;;;;;;;10.92;77.03;98954.58;2898054;81;21403;-72
2021/11/01 05:28:13;;;;;;;22.15;16.80;;;;;;;10.87;76.93;98948.39;2908923;81;21034;-72
2021/11/01 05:32:12;;;;;;;18.15;15.15;;;;;;;10.78;76.58;98941.36;2858985;81;21098;-71
2021/11/01 05:36:09;;;;;;;18.85;15.25;;;;;;;10.73;77.48;98939.69;2856110;83;21011;-72
2021/11/01 05:40:12;;;;;;;23.12;15.58;;;;;;;10.81;77.65;98931.24;2884420;82;21011;-72
2021/11/01 05:44:15;;;;;;;25.10;20.15;;;;;;;10.92;77.84;98932.77;2909376;82;20991;-73
2021/11/01 05:48:17;;;;;;;24.20;16.67;;;;;;;11.09;77.18;98931.50;2890548;81;21063;-73
2021/11/01 05:52:27;;;;;;;17.98;15.38;;;;;;;11.05;76.92;98939.47;2892216;81;21062;-72
2021/11/01 05:56:45;;;;;;;21.45;16.55;;;;;;;10.88;77.19;98951.39;2883072;81;21412;-73
2021/11/01 06:00:51;;;;;;;20.80;15.90;;;;;;;10.73;77.87;98955.16;2907776;81;21571;-73
2021/11/01 06:04:55;;;;;;;18.77;16.40;;;;;;;10.63;78.55;98956.61;2900072;81;21023;-72
2021/11/01 06:17:25;;;;;;;26.00;16.17;;;;;;;10.69;78.50;98967.94;2908104;82;21327;-73
2021/11/01 06:21:27;;;;;;;20.08;14.70;;;;;;;10.75;78.40;98966.95;2867278;82;21062;-73
2021/11/01 06:25:29;;;;;;;21.65;16.50;;;;;;;10.85;77.94;98969.83;2856401;82;21089;-72
2021/11/01 06:29:37;;;;;;;23.32;19.37;;;;;;;10.97;77.66;98973.54;2857146;83;21070;-72
2021/11/01 06:42:21;;;;;;;22.80;17.45;;;;;;;11.07;77.81;98976.88;2855952;83;21063;-73
2021/11/01 06:50:54;;;;;;;23.65;17.52;;;;;;;11.39;77.30;98983.78;2854865;82;21016;-72
2021/11/01 09:09:43;;;;;;;20.92;15.43;;;;;;;16.66;61.91;98993.20;2754262;86;21012;-82
2021/11/01 09:42:03;;;;;;;20.65;14.25;;;;;;;17.68;59.91;99013.27;2692650;85;21023;-78
2021/11/01 09:46:10;;;;;;;17.25;13.60;;;;;;;17.77;60.75;99020.63;2890159;77;21047;-80
2021/11/01 09:50:16;;;;;;;21.05;14.93;;;;;;;17.79;60.23;99007.30;3035236;77;20998;-77
2021/11/01 09:54:24;;;;;;;18.35;13.50;;;;;;;17.87;59.46;99014.85;3035353;77;20959;-76
2021/11/01 10:02:48;;;;;;;18.37;12.47;;;;;;;18.01;59.16;99017.87;2987363;77;21105;-75
2021/11/01 10:07:11;;;;;;;23.47;16.52;;;;;;;18.06;59.24;99018.11;2898827;79;21081;-75
2021/11/01 10:10:59;;;;;;;16.32;14.15;;;;;;;18.09;58.75;99017.73;2912009;78;21018;-76
2021/11/01 10:19:14;;;;;;;18.30;14.18;;;;;;;18.20;58.75;99015.44;2947878;80;21018;-78
2021/11/01 10:23:23;;;;;;;16.50;13.68;;;;;;;18.22;57.68;99014.70;2941659;81;20940;-78
2021/11/01 10:27:36;;;;;;;24.40;13.98;;;;;;;18.19;58.19;99017.81;2940963;81;20924;-75
2021/11/01 10:31:48;;;;;;;16.55;14.68;;;;;;;18.21;58.16;99012.55;2938527;81;20987;-80
2021/11/01 10:35:52;;;;;;;16.77;14.60;;;;;;;18.31;57.92;99013.98;2941718;80;20979;-80
2021/11/01 10:39:55;;;;;;;15.85;12.88;;;;;;;18.36;57.99;99014.18;2941085;81;20951;-73
2021/11/01 11:39:32;;;;;;;29.75;13.20;;;;;;;19.31;57.56;99023.72;2974476;79;20995;-72
2021/11/01 11:43:39;;;;;;;17.35;15.10;;;;;;;19.42;57.04;99023.56;2998317;79;21085;-73
2021/11/01 11:48:18;;;;;;;13.70;12.07;;;;;;;19.57;56.24;99018.42;2988456;79;21247;-72
2021/11/01 11:52:15;;;;;;;17.10;13.13;;;;;;;19.68;56.56;99020.44;2986335;79;20988;-76
2021/11/01 11:56:21;;;;;;;13.78;12.33;;;;;;;19.84;56.78;99018.55;2988230;78;21322;-73
2021/11/01 12:00:25;;;;;;;;;;;;;;;19.94;54.91;99022.69;2991273;79;21030;-75
2021/11/01 12:04:33;;;;;;;17.92;12.70;;;;;;;20.08;54.23;99017.50;2984148;78;20062;-77
2021/11/01 12:21:11;;;;;;;13.13;9.95;;;;;;;20.17;54.64;99029.36;2906442;80;21062;-73
2021/11/01 12:25:19;;;;;;;17.95;11.60;;;;;;;19.88;56.57;99024.88;2981359;78;21058;-72
2021/11/01 12:29:23;;;;;;;14.65;11.28;;;;;;;19.72;56.38;99025.70;2928149;80;21042;-72
2021/11/01 12:33:28;;;;;;;13.60;12.03;;;;;;;19.49;57.60;99021.69;2973202;80;21010;-74
2021/11/01 12:37:38;;;;;;;15.85;11.45;;;;;;;19.32;57.83;99017.83;2993045;79;20954;-77
2021/11/01 12:59:01;;;;;;;14.70;13.10;;;;;;;18.91;59.12;99015.24;2962706;80;21032;-75
2021/11/01 13:03:19;;;;;;;16.05;12.30;;;;;;;18.86;59.74;99010.17;2969855;80;20931;-74
2021/11/01 13:11:54;;;;;;;17.20;12.73;;;;;;;18.55;63.22;99017.91;2966529;80;21029;-72
2021/11/01 13:20:07;;;;;;;19.82;14.45;;;;;;;18.39;63.32;99013.26;2975099;79;21008;-73
2021/11/01 13:24:10;;;;;;;27.27;15.88;;;;;;;18.18;64.54;99010.78;2975569;78;21036;-75
2021/11/01 13:37:10;;;;;;;20.15;13.18;;;;;;;17.99;64.89;99010.03;2915864;77;21055;-77
2021/11/01 13:41:16;;;;;;;17.67;13.15;;;;;;;17.89;64.81;99021.70;2919090;78;20988;-77
2021/11/01 13:45:20;;;;;;;53.10;17.30;;;;;;;17.76;65.16;99010.41;2918059;79;21011;-81
2021/11/01 13:49:22;;;;;;;21.45;15.10;;;;;;;17.63;65.47;99002.30;2947588;77;21035;-72
2021/11/01 13:53:24;;;;;;;20.75;14.83;;;;;;;17.59;65.60;99009.13;2950177;80;20944;-71
2021/11/01 13:57:30;;;;;;;19.40;14.85;;;;;;;17.52;65.75;99009.10;2950644;80;21031;-73
2021/11/01 14:01:41;;;;;;;28.10;16.00;;;;;;;17.61;66.42;99007.91;2947299;80;20979;-72
2021/11/01 14:27:21;;;;;;;37.33;18.35;;;;;;;16.58;68.79;99018.87;2950572;80;21007;-71
2021/11/01 14:31:19;;;;;;;19.10;13.40;;;;;;;16.47;69.36;99030.13;2929594;80;21029;-71
2021/11/01 15:26:42;;;;;;;21.90;16.48;;;;;;;15.31;72.92;99017.98;2908129;80;21066;-71
2021/11/01 15:35:12;;;;;;;29.57;19.98;;;;;;;14.96;73.82;99015.91;2907382;81;21235;-71
2021/11/01 16:18:03;;;;;;;48.75;27.73;;;;;;;13.52;75.78;99022.80;2915294;81;21025;-70
2021/11/01 16:21:48;;;;;;;38.08;25.55;;;;;;;13.27;77.02;99026.91;2910264;81;21017;-70
2021/11/01 16:25:56;;;;;;;44.33;26.62;;;;;;;13.03;78.03;99030.52;2914887;81;21051;-72
2021/11/01 16:34:15;;;;;;;69.82;31.55;;;;;;;12.89;79.61;99028.59;2915261;79;21103;-71
2021/11/01 16:38:24;;;;;;;44.40;27.80;;;;;;;12.89;79.18;99028.07;2929738;79;21127;-73
2021/11/01 16:42:31;;;;;;;55.05;28.67;;;;;;;12.92;80.47;99026.38;2911659;81;20989;-72
2021/11/01 16:46:30;;;;;;;54.55;27.40;;;;;;;13.04;77.98;99018.02;2925831;80;21028;-70
2021/11/01 16:50:33;;;;;;;64.20;31.10;;;;;;;13.07;76.18;99019.00;2925900;80;21040;-70
2021/11/01 16:54:36;;;;;;;82.90;31.80;;;;;;;13.07;75.06;99023.00;2926542;80;20958;-71
2021/11/01 16:58:45;;;;;;;61.73;30.37;;;;;;;12.96;74.68;99022.36;2926012;79;21059;-70
2021/11/01 17:02:54;;;;;;;52.90;29.52;;;;;;;12.83;74.46;99026.09;2925018;80;21000;-70
2021/11/01 17:07:02;;;;;;;72.30;47.90;;;;;;;12.79;74.77;99024.78;2911661;81;21413;-71
2021/11/01 17:24:18;;;;;;;48.52;28.98;;;;;;;12.61;75.11;99028.98;2912554;80;21044;-71
2021/11/01 17:28:15;;;;;;;41.75;27.42;;;;;;;12.59;74.87;99027.83;2918133;79;21071;-70
2021/11/01 17:36:27;;;;;;;42.78;25.20;;;;;;;12.53;75.37;99032.00;2901199;81;21031;-70
2021/11/01 18:41:25;;;;;;;37.65;26.45;;;;;;;12.81;79.72;99063.61;2928050;81;21032;-71
2021/11/01 18:54:21;;;;;;;45.05;28.20;;;;;;;13.18;78.78;99056.02;2928134;81;20961;-70
2021/11/01 18:58:26;;;;;;;42.80;28.52;;;;;;;13.25;78.00;99056.97;2927301;81;20992;-68
2021/11/01 19:02:41;;;;;;;37.58;27.17;;;;;;;13.14;77.86;99061.34;2940204;80;21031;-69
2021/11/01 19:06:59;;;;;;;38.98;28.98;;;;;;;13.19;78.39;99052.33;2927704;81;21028;-69
2021/11/01 20:03:20;;;;;;;57.05;35.85;;;;;;;13.01;82.57;99043.20;2832023;83;38744;-70
2021/11/01 20:16:13;;;;;;;54.33;36.42;;;;;;;12.77;83.92;99040.09;2842523;81;21093;-77
2021/11/01 21:25:38;;;;;;;37.20;29.02;;;;;;;12.12;89.81;98993.39;2806504;85;21058;-74
2021/11/01 21:29:40;;;;;;;44.60;30.08;;;;;;;12.19;89.61;99005.03;2806762;83;21371;-71
2021/11/01 21:33:44;;;;;;;42.48;29.25;;;;;;;12.39;88.37;99012.19;2844786;83;21431;-76
2021/11/01 21:37:46;;;;;;;39.60;29.15;;;;;;;12.53;87.75;99013.81;2844479;83;21056;-79
2021/11/01 21:41:48;;;;;;;39.48;30.37;;;;;;;12.55;87.82;99013.14;2834646;81;21075;-75
2021/11/01 21:45:50;;;;;;;49.48;32.53;;;;;;;12.60;87.27;99016.16;2829625;83;20983;-74
2021/11/01 21:49:52;;;;;;;35.43;28.47;;;;;;;12.68;87.00;99011.30;2807418;85;21080;-76
2021/11/01 21:54:04;;;;;;;38.80;27.42;;;;;;;12.56;87.67;98999.64;2806951;85;21041;-75
2021/11/01 21:58:06;;;;;;;40.20;31.57;;;;;;;12.47;87.62;98994.50;2806572;84;21006;-79
2021/11/01 22:41:08;;;;;;;37.15;30.88;;;;;;;12.16;90.02;98959.21;2808604;85;21017;-78
2021/11/01 22:45:15;;;;;;;36.30;29.57;;;;;;;12.20;89.63;98961.38;2806563;85;21002;-74
2021/11/01 22:57:44;;;;;;;43.25;28.15;;;;;;;12.38;89.46;98960.35;2843338;83;21065;-78
2021/11/01 23:01:48;;;;;;;40.03;30.97;;;;;;;12.48;89.31;98953.49;2854787;83;21030;-77
2021/11/01 23:31:52;;;;;;;38.80;27.82;;;;;;;12.33;89.90;98915.52;2854753;83;21034;-75
2021/11/01 23:35:55;;;;;;;39.13;29.63;;;;;;;12.26;90.40;98907.89;2854987;83;21037;-75
2021/11/01 23:39:56;;;;;;;38.73;30.62;;;;;;;12.29;90.11;98918.20;2854981;83;21050;-76
2021/11/01 23:43:58;;;;;;;33.50;27.35;;;;;;;12.45;90.16;98920.50;2854642;83;21037;-73
2021/11/01 23:48:00;;;;;;;37.03;28.07;;;;;;;12.57;89.53;98911.11;2821289;82;21049;-78
2021/11/01 23:52:09;;;;;;;35.17;27.22;;;;;;;12.67;89.29;98903.74;2821462;84;21044;-74
2021/11/01 23:56:08;;;;;;;35.08;27.93;;;;;;;12.77;88.65;98914.69;2827578;84;21058;-76
